sensor_id;sensor_type;location;lat;lon;timestamp;P1;durP1;ratioP1;P2;durP2;ratioP2
52848;SDS011;38714;53.180;5.812;2023-02-15T00:01:41;54.07;;;25.53;;
52848;SDS011;38714;53.180;5.812;2023-02-15T00:04:07;82.70;;;22.60;;
52848;SDS011;38714;53.180;5.812;2023-02-15T00:06:34;59.53;;;25.40;;
52848;SDS011;38714;53.180;5.812;2023-02-15T00:09:00;44.47;;;22.67;;
52848;SDS011;38714;53.180;5.812;2023-02-15T00:11:26;61.17;;;21.40;;
52848;SDS011;38714;53.180;5.812;2023-02-15T00:16:36;37.53;;;18.57;;
52848;SDS011;38714;53.180;5.812;2023-02-15T00:19:03;38.43;;;17.47;;
52848;SDS011;38714;53.180;5.812;2023-02-15T00:21:29;57.10;;;19.77;;
52848;SDS011;38714;53.180;5.812;2023-02-15T00:23:56;43.85;;;20.83;;
52848;SDS011;38714;53.180;5.812;2023-02-15T00:26:24;111.93;;;23.00;;
52848;SDS011;38714;53.180;5.812;2023-02-15T00:28:49;36.20;;;16.90;;
52848;SDS011;38714;53.180;5.812;2023-02-15T00:31:15;35.03;;;17.10;;
52848;SDS011;38714;53.180;5.812;2023-02-15T00:33:41;53.83;;;20.70;;
52848;SDS011;38714;53.180;5.812;2023-02-15T00:36:07;32.73;;;15.33;;
52848;SDS011;38714;53.180;5.812;2023-02-15T00:38:36;40.13;;;15.90;;
52848;SDS011;38714;53.180;5.812;2023-02-15T00:41:04;50.17;;;15.00;;
52848;SDS011;38714;53.180;5.812;2023-02-15T00:43:31;84.33;;;19.73;;
52848;SDS011;38714;53.180;5.812;2023-02-15T00:45:58;65.53;;;15.83;;
52848;SDS011;38714;53.180;5.812;2023-02-15T00:48:24;32.60;;;14.70;;
52848;SDS011;38714;53.180;5.812;2023-02-15T00:50:50;50.57;;;16.50;;
52848;SDS011;38714;53.180;5.812;2023-02-15T00:53:18;30.10;;;12.80;;
52848;SDS011;38714;53.180;5.812;2023-02-15T00:55:44;30.10;;;13.13;;
52848;SDS011;38714;53.180;5.812;2023-02-15T00:58:10;69.10;;;18.90;;
52848;SDS011;38714;53.180;5.812;2023-02-15T01:00:36;27.37;;;12.53;;
52848;SDS011;38714;53.180;5.812;2023-02-15T01:03:03;92.53;;;19.63;;
52848;SDS011;38714;53.180;5.812;2023-02-15T01:05:29;19.40;;;11.63;;
52848;SDS011;38714;53.180;5.812;2023-02-15T01:07:55;62.97;;;16.33;;
52848;SDS011;38714;53.180;5.812;2023-02-15T01:10:21;42.03;;;18.17;;
52848;SDS011;38714;53.180;5.812;2023-02-15T01:12:47;57.40;;;22.97;;
52848;SDS011;38714;53.180;5.812;2023-02-15T01:15:14;16.03;;;10.73;;
52848;SDS011;38714;53.180;5.812;2023-02-15T01:17:40;41.23;;;16.67;;
52848;SDS011;38714;53.180;5.812;2023-02-15T01:20:06;68.27;;;17.87;;
52848;SDS011;38714;53.180;5.812;2023-02-15T01:22:32;40.83;;;16.67;;
52848;SDS011;38714;53.180;5.812;2023-02-15T01:24:57;61.00;;;18.90;;
52848;SDS011;38714;53.180;5.812;2023-02-15T01:27:23;42.57;;;15.40;;
52848;SDS011;38714;53.180;5.812;2023-02-15T01:29:49;108.27;;;17.43;;
52848;SDS011;38714;53.180;5.812;2023-02-15T01:32:14;44.07;;;17.57;;
52848;SDS011;38714;53.180;5.812;2023-02-15T01:34:40;36.13;;;14.07;;
52848;SDS011;38714;53.180;5.812;2023-02-15T01:37:05;18.97;;;12.40;;
52848;SDS011;38714;53.180;5.812;2023-02-15T01:39:31;44.83;;;17.50;;
52848;SDS011;38714;53.180;5.812;2023-02-15T01:41:56;20.63;;;11.40;;
52848;SDS011;38714;53.180;5.812;2023-02-15T01:47:18;56.03;;;11.97;;
52848;SDS011;38714;53.180;5.812;2023-02-15T01:49:48;37.27;;;11.13;;
52848;SDS011;38714;53.180;5.812;2023-02-15T01:52:37;58.97;;;16.40;;
52848;SDS011;38714;53.180;5.812;2023-02-15T01:55:06;29.73;;;14.40;;
52848;SDS011;38714;53.180;5.812;2023-02-15T01:57:32;83.63;;;19.47;;
52848;SDS011;38714;53.180;5.812;2023-02-15T01:59:59;61.03;;;14.03;;
52848;SDS011;38714;53.180;5.812;2023-02-15T02:02:27;31.93;;;12.57;;
52848;SDS011;38714;53.180;5.812;2023-02-15T02:04:58;26.73;;;11.93;;
52848;SDS011;38714;53.180;5.812;2023-02-15T02:07:29;55.33;;;15.07;;
52848;SDS011;38714;53.180;5.812;2023-02-15T02:09:59;24.85;;;11.18;;
52848;SDS011;38714;53.180;5.812;2023-02-15T02:12:26;39.53;;;13.17;;
52848;SDS011;38714;53.180;5.812;2023-02-15T02:14:53;38.70;;;14.37;;
52848;SDS011;38714;53.180;5.812;2023-02-15T02:36:44;55.80;;;16.60;;
52848;SDS011;38714;53.180;5.812;2023-02-15T02:42:15;67.50;;;15.83;;
52848;SDS011;38714;53.180;5.812;2023-02-15T02:44:53;45.17;;;16.77;;
52848;SDS011;38714;53.180;5.812;2023-02-15T02:50:20;49.97;;;16.90;;
52848;SDS011;38714;53.180;5.812;2023-02-15T02:52:52;36.13;;;12.43;;
52848;SDS011;38714;53.180;5.812;2023-02-15T02:58:03;74.93;;;16.10;;
52848;SDS011;38714;53.180;5.812;2023-02-15T03:00:57;104.37;;;22.73;;
52848;SDS011;38714;53.180;5.812;2023-02-15T03:06:09;24.97;;;11.30;;
52848;SDS011;38714;53.180;5.812;2023-02-15T03:08:38;18.13;;;11.23;;
52848;SDS011;38714;53.180;5.812;2023-02-15T03:11:07;26.43;;;13.37;;
52848;SDS011;38714;53.180;5.812;2023-02-15T03:13:33;29.00;;;14.73;;
52848;SDS011;38714;53.180;5.812;2023-02-15T03:16:00;14.07;;;10.03;;
52848;SDS011;38714;53.180;5.812;2023-02-15T03:18:46;19.33;;;11.80;;
52848;SDS011;38714;53.180;5.812;2023-02-15T03:21:19;22.50;;;14.48;;
52848;SDS011;38714;53.180;5.812;2023-02-15T03:23:50;36.37;;;13.20;;
52848;SDS011;38714;53.180;5.812;2023-02-15T03:26:20;83.83;;;16.70;;
52848;SDS011;38714;53.180;5.812;2023-02-15T03:28:48;25.87;;;14.10;;
52848;SDS011;38714;53.180;5.812;2023-02-15T03:31:16;24.83;;;10.93;;
52848;SDS011;38714;53.180;5.812;2023-02-15T03:33:49;25.27;;;13.93;;
52848;SDS011;38714;53.180;5.812;2023-02-15T03:41:56;22.77;;;11.70;;
52848;SDS011;38714;53.180;5.812;2023-02-15T03:44:28;34.92;;;10.35;;
52848;SDS011;38714;53.180;5.812;2023-02-15T03:46:58;54.70;;;18.43;;
52848;SDS011;38714;53.180;5.812;2023-02-15T03:52:20;53.47;;;15.23;;
52848;SDS011;38714;53.180;5.812;2023-02-15T03:54:48;43.00;;;14.50;;
52848;SDS011;38714;53.180;5.812;2023-02-15T03:57:19;69.53;;;17.27;;
52848;SDS011;38714;53.180;5.812;2023-02-15T04:00:06;154.07;;;23.63;;
52848;SDS011;38714;53.180;5.812;2023-02-15T04:05:46;58.93;;;14.33;;
52848;SDS011;38714;53.180;5.812;2023-02-15T04:08:12;102.10;;;20.47;;
52848;SDS011;38714;53.180;5.812;2023-02-15T04:10:38;93.03;;;16.17;;
52848;SDS011;38714;53.180;5.812;2023-02-15T04:13:29;79.60;;;14.35;;
52848;SDS011;38714;53.180;5.812;2023-02-15T04:15:56;45.83;;;14.13;;
52848;SDS011;38714;53.180;5.812;2023-02-15T04:18:29;48.53;;;12.25;;
52848;SDS011;38714;53.180;5.812;2023-02-15T04:21:24;80.20;;;19.37;;
52848;SDS011;38714;53.180;5.812;2023-02-15T04:24:10;38.20;;;18.07;;
52848;SDS011;38714;53.180;5.812;2023-02-15T04:26:55;61.17;;;18.43;;
52848;SDS011;38714;53.180;5.812;2023-02-15T04:29:22;97.33;;;20.17;;
52848;SDS011;38714;53.180;5.812;2023-02-15T04:31:48;52.70;;;14.67;;
52848;SDS011;38714;53.180;5.812;2023-02-15T04:34:15;28.57;;;13.67;;
52848;SDS011;38714;53.180;5.812;2023-02-15T04:36:41;32.50;;;15.30;;
52848;SDS011;38714;53.180;5.812;2023-02-15T04:39:07;61.80;;;16.20;;
52848;SDS011;38714;53.180;5.812;2023-02-15T04:41:33;60.90;;;17.17;;
52848;SDS011;38714;53.180;5.812;2023-02-15T04:43:59;133.03;;;26.63;;
52848;SDS011;38714;53.180;5.812;2023-02-15T04:46:25;56.70;;;18.37;;
52848;SDS011;38714;53.180;5.812;2023-02-15T04:48:52;39.60;;;16.13;;
52848;SDS011;38714;53.180;5.812;2023-02-15T04:51:18;52.20;;;15.03;;
52848;SDS011;38714;53.180;5.812;2023-02-15T04:53:44;86.57;;;19.80;;
52848;SDS011;38714;53.180;5.812;2023-02-15T04:56:10;54.70;;;12.87;;
52848;SDS011;38714;53.180;5.812;2023-02-15T04:58:36;83.30;;;15.13;;
52848;SDS011;38714;53.180;5.812;2023-02-15T05:01:02;24.73;;;12.47;;
52848;SDS011;38714;53.180;5.812;2023-02-15T05:03:28;45.70;;;15.53;;
52848;SDS011;38714;53.180;5.812;2023-02-15T05:05:54;46.00;;;17.67;;
52848;SDS011;38714;53.180;5.812;2023-02-15T05:08:19;52.50;;;16.43;;
52848;SDS011;38714;53.180;5.812;2023-02-15T05:10:47;24.73;;;13.67;;
52848;SDS011;38714;53.180;5.812;2023-02-15T05:13:13;37.10;;;14.37;;
52848;SDS011;38714;53.180;5.812;2023-02-15T05:15:39;53.47;;;18.73;;
52848;SDS011;38714;53.180;5.812;2023-02-15T05:18:04;17.43;;;12.13;;
52848;SDS011;38714;53.180;5.812;2023-02-15T05:20:31;55.90;;;17.40;;
52848;SDS011;38714;53.180;5.812;2023-02-15T05:22:56;29.70;;;13.57;;
52848;SDS011;38714;53.180;5.812;2023-02-15T05:25:22;27.30;;;13.97;;
52848;SDS011;38714;53.180;5.812;2023-02-15T05:28:08;58.03;;;15.90;;
52848;SDS011;38714;53.180;5.812;2023-02-15T05:30:44;52.60;;;16.30;;
52848;SDS011;38714;53.180;5.812;2023-02-15T05:33:11;38.37;;;18.33;;
52848;SDS011;38714;53.180;5.812;2023-02-15T05:35:37;19.17;;;12.50;;
52848;SDS011;38714;53.180;5.812;2023-02-15T05:38:02;18.93;;;13.63;;
52848;SDS011;38714;53.180;5.812;2023-02-15T05:40:28;15.20;;;11.27;;
52848;SDS011;38714;53.180;5.812;2023-02-15T05:42:54;49.90;;;15.90;;
52848;SDS011;38714;53.180;5.812;2023-02-15T05:45:21;38.60;;;15.83;;
52848;SDS011;38714;53.180;5.812;2023-02-15T05:47:47;18.23;;;11.10;;
52848;SDS011;38714;53.180;5.812;2023-02-15T05:50:12;23.33;;;13.83;;
52848;SDS011;38714;53.180;5.812;2023-02-15T05:52:38;25.07;;;12.57;;
52848;SDS011;38714;53.180;5.812;2023-02-15T05:55:04;22.03;;;16.03;;
52848;SDS011;38714;53.180;5.812;2023-02-15T05:57:30;19.87;;;12.30;;
52848;SDS011;38714;53.180;5.812;2023-02-15T05:59:56;37.43;;;13.47;;
52848;SDS011;38714;53.180;5.812;2023-02-15T06:02:21;18.37;;;14.23;;
52848;SDS011;38714;53.180;5.812;2023-02-15T06:04:47;22.97;;;15.73;;
52848;SDS011;38714;53.180;5.812;2023-02-15T06:07:13;19.30;;;13.23;;
52848;SDS011;38714;53.180;5.812;2023-02-15T06:09:38;17.30;;;13.97;;
52848;SDS011;38714;53.180;5.812;2023-02-15T06:12:04;14.13;;;11.77;;
52848;SDS011;38714;53.180;5.812;2023-02-15T06:14:30;16.53;;;12.50;;
52848;SDS011;38714;53.180;5.812;2023-02-15T06:16:58;30.30;;;16.90;;
52848;SDS011;38714;53.180;5.812;2023-02-15T06:19:24;22.80;;;15.97;;
52848;SDS011;38714;53.180;5.812;2023-02-15T06:21:50;40.03;;;18.03;;
52848;SDS011;38714;53.180;5.812;2023-02-15T06:24:15;37.90;;;20.63;;
52848;SDS011;38714;53.180;5.812;2023-02-15T06:26:41;51.33;;;25.03;;
52848;SDS011;38714;53.180;5.812;2023-02-15T06:29:07;56.83;;;21.60;;
52848;SDS011;38714;53.180;5.812;2023-02-15T06:31:32;145.50;;;31.97;;
52848;SDS011;38714;53.180;5.812;2023-02-15T06:33:58;67.97;;;21.07;;
52848;SDS011;38714;53.180;5.812;2023-02-15T06:36:29;92.90;;;24.53;;
52848;SDS011;38714;53.180;5.812;2023-02-15T06:38:55;66.97;;;24.53;;
52848;SDS011;38714;53.180;5.812;2023-02-15T06:41:21;105.60;;;24.73;;
52848;SDS011;38714;53.180;5.812;2023-02-15T06:43:48;34.50;;;20.63;;
52848;SDS011;38714;53.180;5.812;2023-02-15T06:46:14;27.00;;;16.07;;
52848;SDS011;38714;53.180;5.812;2023-02-15T06:48:40;27.57;;;18.90;;
52848;SDS011;38714;53.180;5.812;2023-02-15T06:51:05;35.13;;;21.13;;
52848;SDS011;38714;53.180;5.812;2023-02-15T06:53:31;34.77;;;20.17;;
52848;SDS011;38714;53.180;5.812;2023-02-15T06:56:00;55.23;;;22.97;;
52848;SDS011;38714;53.180;5.812;2023-02-15T06:58:28;73.77;;;21.07;;
52848;SDS011;38714;53.180;5.812;2023-02-15T07:00:53;37.77;;;21.80;;
52848;SDS011;38714;53.180;5.812;2023-02-15T07:03:19;50.87;;;22.20;;
52848;SDS011;38714;53.180;5.812;2023-02-15T07:05:44;38.93;;;21.73;;
52848;SDS011;38714;53.180;5.812;2023-02-15T07:08:12;45.97;;;22.33;;
52848;SDS011;38714;53.180;5.812;2023-02-15T07:10:38;57.23;;;22.50;;
52848;SDS011;38714;53.180;5.812;2023-02-15T07:13:03;57.67;;;22.33;;
52848;SDS011;38714;53.180;5.812;2023-02-15T07:15:29;48.83;;;22.43;;
52848;SDS011;38714;53.180;5.812;2023-02-15T07:17:56;69.43;;;23.50;;
52848;SDS011;38714;53.180;5.812;2023-02-15T07:20:23;54.00;;;22.87;;
52848;SDS011;38714;53.180;5.812;2023-02-15T07:22:49;36.50;;;21.07;;
52848;SDS011;38714;53.180;5.812;2023-02-15T07:25:15;84.90;;;27.33;;
52848;SDS011;38714;53.180;5.812;2023-02-15T07:27:41;75.93;;;25.00;;
52848;SDS011;38714;53.180;5.812;2023-02-15T07:30:09;61.43;;;21.13;;
52848;SDS011;38714;53.180;5.812;2023-02-15T07:32:36;66.07;;;27.17;;
52848;SDS011;38714;53.180;5.812;2023-02-15T07:35:22;101.87;;;26.40;;
52848;SDS011;38714;53.180;5.812;2023-02-15T07:37:47;42.50;;;22.27;;
52848;SDS011;38714;53.180;5.812;2023-02-15T07:40:13;121.27;;;25.63;;
52848;SDS011;38714;53.180;5.812;2023-02-15T07:42:39;61.87;;;26.23;;
52848;SDS011;38714;53.180;5.812;2023-02-15T07:45:04;75.73;;;27.27;;
52848;SDS011;38714;53.180;5.812;2023-02-15T07:47:30;47.77;;;21.07;;
52848;SDS011;38714;53.180;5.812;2023-02-15T07:49:55;35.80;;;23.97;;
52848;SDS011;38714;53.180;5.812;2023-02-15T07:52:21;31.60;;;20.40;;
52848;SDS011;38714;53.180;5.812;2023-02-15T07:54:46;49.73;;;23.93;;
52848;SDS011;38714;53.180;5.812;2023-02-15T07:57:12;78.07;;;28.83;;
52848;SDS011;38714;53.180;5.812;2023-02-15T07:59:37;91.00;;;29.00;;
52848;SDS011;38714;53.180;5.812;2023-02-15T08:02:05;64.60;;;31.60;;
52848;SDS011;38714;53.180;5.812;2023-02-15T08:04:34;73.33;;;28.70;;
52848;SDS011;38714;53.180;5.812;2023-02-15T08:06:59;123.33;;;31.87;;
52848;SDS011;38714;53.180;5.812;2023-02-15T08:09:25;63.17;;;25.90;;
52848;SDS011;38714;53.180;5.812;2023-02-15T08:11:51;96.43;;;29.87;;
52848;SDS011;38714;53.180;5.812;2023-02-15T08:14:20;30.40;;;22.23;;
52848;SDS011;38714;53.180;5.812;2023-02-15T08:19:18;59.10;;;26.53;;
52848;SDS011;38714;53.180;5.812;2023-02-15T08:21:48;50.57;;;26.83;;
52848;SDS011;38714;53.180;5.812;2023-02-15T08:24:25;50.10;;;26.03;;
52848;SDS011;38714;53.180;5.812;2023-02-15T08:26:53;42.93;;;24.07;;
52848;SDS011;38714;53.180;5.812;2023-02-15T08:29:19;45.27;;;25.47;;
52848;SDS011;38714;53.180;5.812;2023-02-15T08:31:47;35.20;;;22.53;;
52848;SDS011;38714;53.180;5.812;2023-02-15T08:34:14;32.13;;;22.57;;
52848;SDS011;38714;53.180;5.812;2023-02-15T08:36:42;48.23;;;28.77;;
52848;SDS011;38714;53.180;5.812;2023-02-15T08:39:10;34.27;;;23.43;;
52848;SDS011;38714;53.180;5.812;2023-02-15T08:41:37;39.43;;;25.60;;
52848;SDS011;38714;53.180;5.812;2023-02-15T08:44:07;31.47;;;22.37;;
52848;SDS011;38714;53.180;5.812;2023-02-15T08:46:37;32.33;;;22.93;;
52848;SDS011;38714;53.180;5.812;2023-02-15T08:49:04;36.87;;;23.63;;
52848;SDS011;38714;53.180;5.812;2023-02-15T08:51:31;35.23;;;28.87;;
52848;SDS011;38714;53.180;5.812;2023-02-15T08:53:59;33.87;;;23.83;;
52848;SDS011;38714;53.180;5.812;2023-02-15T08:56:28;34.20;;;25.60;;
52848;SDS011;38714;53.180;5.812;2023-02-15T08:58:57;41.00;;;24.70;;
52848;SDS011;38714;53.180;5.812;2023-02-15T09:01:28;46.60;;;27.40;;
52848;SDS011;38714;53.180;5.812;2023-02-15T09:03:59;42.50;;;25.92;;
52848;SDS011;38714;53.180;5.812;2023-02-15T09:06:26;37.97;;;24.67;;
52848;SDS011;38714;53.180;5.812;2023-02-15T09:08:52;53.50;;;27.63;;
52848;SDS011;38714;53.180;5.812;2023-02-15T09:11:20;47.33;;;26.73;;
52848;SDS011;38714;53.180;5.812;2023-02-15T09:16:20;35.40;;;27.17;;
52848;SDS011;38714;53.180;5.812;2023-02-15T09:18:48;48.13;;;27.70;;
52848;SDS011;38714;53.180;5.812;2023-02-15T09:21:15;44.00;;;27.63;;
52848;SDS011;38714;53.180;5.812;2023-02-15T09:23:42;38.83;;;26.97;;
52848;SDS011;38714;53.180;5.812;2023-02-15T09:26:11;43.93;;;30.83;;
52848;SDS011;38714;53.180;5.812;2023-02-15T09:28:41;47.80;;;28.43;;
52848;SDS011;38714;53.180;5.812;2023-02-15T09:31:11;55.23;;;29.07;;
52848;SDS011;38714;53.180;5.812;2023-02-15T09:33:42;52.47;;;31.83;;
52848;SDS011;38714;53.180;5.812;2023-02-15T09:36:17;59.05;;;33.45;;
52848;SDS011;38714;53.180;5.812;2023-02-15T09:38:44;52.80;;;31.10;;
52848;SDS011;38714;53.180;5.812;2023-02-15T09:44:01;58.72;;;35.20;;
52848;SDS011;38714;53.180;5.812;2023-02-15T09:46:41;60.73;;;38.30;;
52848;SDS011;38714;53.180;5.812;2023-02-15T09:49:40;70.57;;;39.97;;
52848;SDS011;38714;53.180;5.812;2023-02-15T09:55:00;73.00;;;46.78;;
52848;SDS011;38714;53.180;5.812;2023-02-15T10:00:29;82.03;;;43.13;;
52848;SDS011;38714;53.180;5.812;2023-02-15T10:11:14;75.53;;;44.70;;
52848;SDS011;38714;53.180;5.812;2023-02-15T10:14:42;87.07;;;46.03;;
52848;SDS011;38714;53.180;5.812;2023-02-15T10:17:04;78.03;;;44.97;;
52848;SDS011;38714;53.180;5.812;2023-02-15T10:22:46;87.75;;;48.70;;
52848;SDS011;38714;53.180;5.812;2023-02-15T10:25:26;83.97;;;48.15;;
52848;SDS011;38714;53.180;5.812;2023-02-15T10:27:54;99.30;;;48.05;;
52848;SDS011;38714;53.180;5.812;2023-02-15T10:30:32;96.15;;;47.03;;
52848;SDS011;38714;53.180;5.812;2023-02-15T10:33:16;88.20;;;50.53;;
52848;SDS011;38714;53.180;5.812;2023-02-15T10:38:58;87.88;;;48.22;;
52848;SDS011;38714;53.180;5.812;2023-02-15T10:58:19;91.60;;;49.17;;
52848;SDS011;38714;53.180;5.812;2023-02-15T11:11:05;81.85;;;45.50;;
52848;SDS011;38714;53.180;5.812;2023-02-15T11:13:41;94.60;;;48.05;;
52848;SDS011;38714;53.180;5.812;2023-02-15T11:21:37;84.72;;;48.85;;
52848;SDS011;38714;53.180;5.812;2023-02-15T11:24:17;73.00;;;41.25;;
52848;SDS011;38714;53.180;5.812;2023-02-15T11:26:49;82.93;;;44.13;;
52848;SDS011;38714;53.180;5.812;2023-02-15T11:31:53;99.95;;;48.55;;
52848;SDS011;38714;53.180;5.812;2023-02-15T11:34:33;78.60;;;46.15;;
52848;SDS011;38714;53.180;5.812;2023-02-15T11:37:06;87.47;;;47.90;;
52848;SDS011;38714;53.180;5.812;2023-02-15T11:39:36;89.60;;;48.03;;
52848;SDS011;38714;53.180;5.812;2023-02-15T11:42:04;72.13;;;44.70;;
52848;SDS011;38714;53.180;5.812;2023-02-15T11:44:39;81.85;;;44.85;;
52848;SDS011;38714;53.180;5.812;2023-02-15T11:47:13;88.05;;;43.85;;
52848;SDS011;38714;53.180;5.812;2023-02-15T11:49:39;77.95;;;42.28;;
52848;SDS011;38714;53.180;5.812;2023-02-15T11:52:06;90.80;;;42.65;;
52848;SDS011;38714;53.180;5.812;2023-02-15T11:54:36;84.40;;;38.45;;
52848;SDS011;38714;53.180;5.812;2023-02-15T11:57:14;74.60;;;39.38;;
52848;SDS011;38714;53.180;5.812;2023-02-15T11:59:52;75.32;;;40.72;;
52848;SDS011;38714;53.180;5.812;2023-02-15T12:02:25;63.15;;;36.35;;
52848;SDS011;38714;53.180;5.812;2023-02-15T12:05:01;77.05;;;39.15;;
52848;SDS011;38714;53.180;5.812;2023-02-15T12:07:32;70.00;;;38.42;;
52848;SDS011;38714;53.180;5.812;2023-02-15T12:10:10;67.55;;;37.03;;
52848;SDS011;38714;53.180;5.812;2023-02-15T12:12:39;73.22;;;36.10;;
52848;SDS011;38714;53.180;5.812;2023-02-15T12:15:06;61.10;;;36.92;;
52848;SDS011;38714;53.180;5.812;2023-02-15T12:17:34;65.45;;;38.10;;
52848;SDS011;38714;53.180;5.812;2023-02-15T12:22:45;62.55;;;36.53;;
52848;SDS011;38714;53.180;5.812;2023-02-15T12:25:22;59.45;;;36.05;;
52848;SDS011;38714;53.180;5.812;2023-02-15T12:27:48;56.35;;;35.00;;
52848;SDS011;38714;53.180;5.812;2023-02-15T12:30:31;53.45;;;33.00;;
52848;SDS011;38714;53.180;5.812;2023-02-15T12:33:13;61.70;;;34.55;;
52848;SDS011;38714;53.180;5.812;2023-02-15T12:35:42;68.07;;;35.92;;
52848;SDS011;38714;53.180;5.812;2023-02-15T12:40:34;59.60;;;33.72;;
52848;SDS011;38714;53.180;5.812;2023-02-15T12:43:00;61.25;;;32.85;;
52848;SDS011;38714;53.180;5.812;2023-02-15T12:45:34;64.03;;;33.13;;
52848;SDS011;38714;53.180;5.812;2023-02-15T12:50:44;48.10;;;28.23;;
52848;SDS011;38714;53.180;5.812;2023-02-15T12:55:57;56.80;;;31.55;;
52848;SDS011;38714;53.180;5.812;2023-02-15T12:58:26;52.78;;;28.85;;
52848;SDS011;38714;53.180;5.812;2023-02-15T13:01:04;53.10;;;31.95;;
52848;SDS011;38714;53.180;5.812;2023-02-15T13:03:34;58.90;;;31.70;;
52848;SDS011;38714;53.180;5.812;2023-02-15T13:06:02;48.63;;;28.60;;
52848;SDS011;38714;53.180;5.812;2023-02-15T13:08:53;48.60;;;29.88;;
52848;SDS011;38714;53.180;5.812;2023-02-15T13:11:38;59.58;;;30.23;;
52848;SDS011;38714;53.180;5.812;2023-02-15T13:14:19;42.95;;;28.27;;
52848;SDS011;38714;53.180;5.812;2023-02-15T13:16:48;48.28;;;29.42;;
52848;SDS011;38714;53.180;5.812;2023-02-15T13:19:18;51.25;;;28.67;;
52848;SDS011;38714;53.180;5.812;2023-02-15T13:21:48;39.08;;;25.00;;
52848;SDS011;38714;53.180;5.812;2023-02-15T13:27:00;59.65;;;29.52;;
52848;SDS011;38714;53.180;5.812;2023-02-15T13:29:31;46.00;;;26.25;;
52848;SDS011;38714;53.180;5.812;2023-02-15T13:32:05;46.20;;;31.52;;
52848;SDS011;38714;53.180;5.812;2023-02-15T13:34:48;44.22;;;28.63;;
52848;SDS011;38714;53.180;5.812;2023-02-15T13:37:15;48.63;;;30.17;;
52848;SDS011;38714;53.180;5.812;2023-02-15T13:42:48;46.80;;;25.90;;
52848;SDS011;38714;53.180;5.812;2023-02-15T13:46:24;46.55;;;28.67;;
52848;SDS011;38714;53.180;5.812;2023-02-15T13:49:19;44.15;;;24.77;;
52848;SDS011;38714;53.180;5.812;2023-02-15T13:56:57;41.28;;;23.83;;
52848;SDS011;38714;53.180;5.812;2023-02-15T13:59:33;55.10;;;24.98;;
52848;SDS011;38714;53.180;5.812;2023-02-15T14:10:57;36.17;;;23.77;;
52848;SDS011;38714;53.180;5.812;2023-02-15T14:13:32;36.00;;;21.85;;
52848;SDS011;38714;53.180;5.812;2023-02-15T14:16:13;39.80;;;26.73;;
52848;SDS011;38714;53.180;5.812;2023-02-15T14:24:27;40.17;;;29.67;;
52848;SDS011;38714;53.180;5.812;2023-02-15T14:30:03;43.20;;;26.08;;
52848;SDS011;38714;53.180;5.812;2023-02-15T14:32:41;48.75;;;25.95;;
52848;SDS011;38714;53.180;5.812;2023-02-15T14:35:14;46.30;;;25.80;;
52848;SDS011;38714;53.180;5.812;2023-02-15T14:48:45;40.83;;;24.23;;
52848;SDS011;38714;53.180;5.812;2023-02-15T14:56:42;43.95;;;26.35;;
52848;SDS011;38714;53.180;5.812;2023-02-15T15:01:42;39.15;;;24.10;;
52848;SDS011;38714;53.180;5.812;2023-02-15T15:09:32;43.70;;;26.95;;
52848;SDS011;38714;53.180;5.812;2023-02-15T15:12:47;49.08;;;26.92;;
52848;SDS011;38714;53.180;5.812;2023-02-15T15:14:50;46.70;;;26.42;;
52848;SDS011;38714;53.180;5.812;2023-02-15T15:28:52;41.95;;;24.67;;
52848;SDS011;38714;53.180;5.812;2023-02-15T15:31:00;45.10;;;27.13;;
52848;SDS011;38714;53.180;5.812;2023-02-15T15:33:46;39.42;;;25.27;;
52848;SDS011;38714;53.180;5.812;2023-02-15T15:47:59;37.17;;;26.42;;
52848;SDS011;38714;53.180;5.812;2023-02-15T15:50:46;46.00;;;25.60;;
52848;SDS011;38714;53.180;5.812;2023-02-15T15:55:47;42.63;;;27.63;;
52848;SDS011;38714;53.180;5.812;2023-02-15T15:58:15;34.97;;;23.10;;
52848;SDS011;38714;53.180;5.812;2023-02-15T16:00:54;40.17;;;25.90;;
52848;SDS011;38714;53.180;5.812;2023-02-15T16:03:25;54.03;;;28.23;;
52848;SDS011;38714;53.180;5.812;2023-02-15T16:05:52;51.70;;;27.70;;
52848;SDS011;38714;53.180;5.812;2023-02-15T16:10:58;49.53;;;28.02;;
52848;SDS011;38714;53.180;5.812;2023-02-15T16:13:25;40.97;;;25.13;;
52848;SDS011;38714;53.180;5.812;2023-02-15T16:15:52;42.25;;;25.83;;
52848;SDS011;38714;53.180;5.812;2023-02-15T16:18:21;45.28;;;30.27;;
52848;SDS011;38714;53.180;5.812;2023-02-15T16:20:50;46.92;;;27.65;;
52848;SDS011;38714;53.180;5.812;2023-02-15T16:25:48;42.75;;;27.73;;
52848;SDS011;38714;53.180;5.812;2023-02-15T16:28:38;40.35;;;26.25;;
52848;SDS011;38714;53.180;5.812;2023-02-15T16:31:10;38.22;;;26.83;;
52848;SDS011;38714;53.180;5.812;2023-02-15T16:33:38;40.42;;;26.73;;
52848;SDS011;38714;53.180;5.812;2023-02-15T16:36:05;44.38;;;27.63;;
52848;SDS011;38714;53.180;5.812;2023-02-15T16:41:10;42.92;;;27.55;;
52848;SDS011;38714;53.180;5.812;2023-02-15T16:43:38;38.50;;;25.58;;
52848;SDS011;38714;53.180;5.812;2023-02-15T16:46:10;38.03;;;28.70;;
52848;SDS011;38714;53.180;5.812;2023-02-15T16:48:41;47.00;;;28.42;;
52848;SDS011;38714;53.180;5.812;2023-02-15T16:51:09;46.40;;;26.52;;
52848;SDS011;38714;53.180;5.812;2023-02-15T16:53:35;45.97;;;26.67;;
52848;SDS011;38714;53.180;5.812;2023-02-15T16:56:02;37.75;;;24.75;;
52848;SDS011;38714;53.180;5.812;2023-02-15T16:58:41;48.28;;;26.63;;
52848;SDS011;38714;53.180;5.812;2023-02-15T17:01:10;50.05;;;29.55;;
52848;SDS011;38714;53.180;5.812;2023-02-15T17:03:40;51.95;;;27.38;;
52848;SDS011;38714;53.180;5.812;2023-02-15T17:06:23;42.22;;;29.65;;
52848;SDS011;38714;53.180;5.812;2023-02-15T17:08:51;54.88;;;31.30;;
52848;SDS011;38714;53.180;5.812;2023-02-15T17:11:21;42.92;;;29.20;;
52848;SDS011;38714;53.180;5.812;2023-02-15T17:16:31;47.83;;;29.58;;
52848;SDS011;38714;53.180;5.812;2023-02-15T17:19:00;48.63;;;28.83;;
52848;SDS011;38714;53.180;5.812;2023-02-15T17:21:33;49.78;;;31.77;;
52848;SDS011;38714;53.180;5.812;2023-02-15T17:24:05;55.20;;;29.27;;
52848;SDS011;38714;53.180;5.812;2023-02-15T17:26:32;60.53;;;30.40;;
52848;SDS011;38714;53.180;5.812;2023-02-15T17:29:11;42.95;;;26.70;;
52848;SDS011;38714;53.180;5.812;2023-02-15T17:31:47;55.08;;;31.33;;
52848;SDS011;38714;53.180;5.812;2023-02-15T17:37:23;54.50;;;30.83;;
52848;SDS011;38714;53.180;5.812;2023-02-15T17:40:06;42.72;;;28.65;;
52848;SDS011;38714;53.180;5.812;2023-02-15T17:42:45;52.50;;;30.63;;
52848;SDS011;38714;53.180;5.812;2023-02-15T17:45:11;52.83;;;30.45;;
52848;SDS011;38714;53.180;5.812;2023-02-15T17:47:36;47.70;;;32.38;;
52848;SDS011;38714;53.180;5.812;2023-02-15T17:50:03;47.05;;;30.65;;
52848;SDS011;38714;53.180;5.812;2023-02-15T17:52:30;51.22;;;31.23;;
52848;SDS011;38714;53.180;5.812;2023-02-15T17:54:55;47.58;;;30.58;;
52848;SDS011;38714;53.180;5.812;2023-02-15T17:57:40;44.35;;;31.75;;
52848;SDS011;38714;53.180;5.812;2023-02-15T18:00:06;43.53;;;30.15;;
52848;SDS011;38714;53.180;5.812;2023-02-15T18:02:51;46.30;;;29.05;;
52848;SDS011;38714;53.180;5.812;2023-02-15T18:05:36;46.53;;;30.95;;
52848;SDS011;38714;53.180;5.812;2023-02-15T18:08:22;52.25;;;30.65;;
52848;SDS011;38714;53.180;5.812;2023-02-15T18:11:10;49.95;;;28.55;;
52848;SDS011;38714;53.180;5.812;2023-02-15T18:13:54;54.00;;;33.22;;